Time;durP1;ratioP1;P1;durP2;ratioP2;P2;SDS_P1;SDS_P2;PMS_P1;PMS_P2;Temp;Humidity;BMP_temperature;BMP_pressure;BME280_temperature;BME280_humidity;BME280_pressure;Samples;Min_cycle;Max_cycle;Signal;HPM_P1;HPM_P2
2022/11/23 00:00:03;;;;;;;12.20;3.45;;;5.00;99.90;;;;;;5010350;28;20065;-65
2022/11/23 00:02:28;;;;;;;7.43;3.05;;;5.10;99.90;;;;;;4993675;28;20057;-65
2022/11/23 00:04:54;;;;;;;8.40;3.00;;;5.10;99.90;;;;;;5008313;28;20049;-64
2022/11/23 00:07:20;;;;;;;10.23;3.08;;;5.10;99.90;;;;;;5020879;28;20054;-64
2022/11/23 00:09:46;;;;;;;10.75;3.65;;;5.10;99.90;;;;;;5009986;28;20475;-64
2022/11/23 00:12:11;;;;;;;10.70;3.95;;;5.10;99.90;;;;;;5008211;28;20108;-64
2022/11/23 00:14:37;;;;;;;13.85;3.97;;;5.10;99.90;;;;;;5008169;28;20044;-63
2022/11/23 00:17:03;;;;;;;6.13;3.05;;;5.10;99.90;;;;;;4993468;28;20115;-64
2022/11/23 00:19:28;;;;;;;12.52;4.10;;;5.10;99.90;;;;;;5009361;28;20093;-64
2022/11/23 00:21:54;;;;;;;9.90;5.00;;;5.10;99.90;;;;;;5010412;28;20081;-63
2022/11/23 00:24:20;;;;;;;8.65;3.85;;;5.10;99.90;;;;;;5006665;28;20091;-64
2022/11/23 00:26:46;;;;;;;17.45;5.75;;;5.10;99.90;;;;;;5009237;28;20065;-63
2022/11/23 00:29:11;;;;;;;8.50;3.60;;;5.10;99.90;;;;;;5025469;28;20050;-65
2022/11/23 00:31:37;;;;;;;13.00;3.60;;;5.00;99.90;;;;;;5023577;28;20057;-66
2022/11/23 00:34:03;;;;;;;13.15;3.75;;;5.00;99.90;;;;;;4992316;28;20049;-64
2022/11/23 00:36:28;;;;;;;11.85;3.30;;;5.00;99.90;;;;;;5007924;28;20038;-65
2022/11/23 00:38:54;;;;;;;11.38;3.50;;;5.00;99.90;;;;;;5009984;28;20108;-65
2022/11/23 00:41:24;;;;;;;9.15;3.70;;;5.00;99.90;;;;;;4991018;28;20042;-66
2022/11/23 00:43:50;;;;;;;6.28;2.97;;;4.90;99.90;;;;;;5007280;28;20056;-65
2022/11/23 00:46:21;;;;;;;9.20;4.05;;;4.90;99.90;;;;;;5025737;28;20042;-66
2022/11/23 00:48:48;;;;;;;9.00;3.45;;;4.80;99.90;;;;;;5007436;28;20076;-65
2022/11/23 00:51:16;;;;;;;12.20;4.22;;;4.80;99.90;;;;;;5035116;28;20484;-65
2022/11/23 00:53:42;;;;;;;;;;;4.80;99.90;;;;;;5003400;28;20072;-65
2022/11/23 00:56:08;;;;;;;10.80;3.90;;;4.80;99.90;;;;;;5008629;28;19987;-63
2022/11/23 00:58:37;;;;;;;12.02;3.60;;;4.70;99.90;;;;;;5006039;28;20043;-63
2022/11/23 01:01:10;;;;;;;10.00;3.72;;;4.70;99.90;;;;;;4975643;28;20061;-63
2022/11/23 01:03:39;;;;;;;14.95;6.15;;;4.60;99.90;;;;;;5009428;28;20368;-63
2022/11/23 01:06:06;;;;;;;13.20;4.75;;;4.70;99.90;;;;;;5008805;28;20107;-64
2022/11/23 01:08:32;;;;;;;9.23;3.55;;;4.70;99.90;;;;;;5005160;28;20053;-64
2022/11/23 01:11:02;;;;;;;8.95;3.20;;;4.60;99.90;;;;;;4988671;28;20049;-64
2022/11/23 01:13:28;;;;;;;12.05;3.70;;;4.70;99.90;;;;;;5009824;28;20049;-64
2022/11/23 01:15:54;;;;;;;11.25;3.50;;;4.70;99.90;;;;;;4988142;28;20537;-64
2022/11/23 01:18:20;;;;;;;7.72;3.67;;;4.60;99.90;;;;;;4993502;28;20428;-64
2022/11/23 01:20:46;;;;;;;10.07;3.78;;;4.50;99.90;;;;;;4992207;28;20053;-65
2022/11/23 01:23:11;;;;;;;11.48;4.07;;;4.50;99.90;;;;;;5007887;28;20076;-65
2022/11/23 01:25:37;;;;;;;11.52;4.20;;;4.50;99.90;;;;;;5025070;28;20720;-63
2022/11/23 01:28:03;;;;;;;9.32;3.30;;;4.50;99.90;;;;;;5008525;28;20053;-64
2022/11/23 01:30:29;;;;;;;8.95;3.08;;;4.50;99.90;;;;;;5004055;28;20124;-64
2022/11/23 01:32:55;;;;;;;9.85;3.75;;;4.40;99.90;;;;;;5009563;28;20459;-64
2022/11/23 01:35:21;;;;;;;10.80;3.55;;;4.40;99.90;;;;;;4989131;28;20064;-63
2022/11/23 01:37:47;;;;;;;10.75;4.22;;;4.40;99.90;;;;;;5009169;28;20523;-64
2022/11/23 01:40:13;;;;;;;14.88;4.07;;;4.40;99.90;;;;;;5007421;28;20054;-65
2022/11/23 01:42:58;;;;;;;11.02;4.07;;;4.40;99.90;;;;;;4992514;28;20415;-64
2022/11/23 01:45:32;;;;;;;10.30;3.42;;;4.40;99.90;;;;;;5008957;28;20081;-63
2022/11/23 01:47:58;;;;;;;12.27;3.63;;;4.30;99.90;;;;;;5008588;28;20073;-64
2022/11/23 01:50:25;;;;;;;8.35;3.28;;;4.40;99.90;;;;;;5008378;28;20073;-63
2022/11/23 01:52:51;;;;;;;8.63;4.05;;;4.30;99.90;;;;;;5012009;28;20052;-64
2022/11/23 01:55:16;;;;;;;10.13;3.35;;;4.30;99.90;;;;;;4991604;28;20045;-64
2022/11/23 01:57:42;;;;;;;12.68;4.20;;;4.30;99.90;;;;;;5007780;28;21006;-63
2022/11/23 02:00:09;;;;;;;8.55;3.78;;;4.30;99.90;;;;;;5007456;28;20049;-64
2022/11/23 02:02:35;;;;;;;9.25;4.18;;;4.30;99.90;;;;;;5008554;28;20042;-63
2022/11/23 02:05:00;;;;;;;12.57;3.67;;;4.30;99.90;;;;;;5007918;28;20455;-64
2022/11/23 02:07:26;;;;;;;9.15;3.90;;;4.30;99.90;;;;;;5007713;28;20129;-64
2022/11/23 02:09:52;;;;;;;7.78;3.25;;;4.30;99.90;;;;;;4991546;28;20053;-64
2022/11/23 02:12:18;;;;;;;10.10;3.42;;;4.30;99.90;;;;;;5007800;28;20041;-63
2022/11/23 02:14:45;;;;;;;11.68;3.95;;;4.30;99.90;;;;;;4992129;28;20084;-64
2022/11/23 02:17:11;;;;;;;15.70;4.55;;;4.30;99.90;;;;;;5011771;28;20050;-64
2022/11/23 02:20:04;;;;;;;11.70;3.88;;;4.30;99.90;;;;;;4976567;28;20076;-63
2022/11/23 02:22:55;;;;;;;10.00;3.25;;;4.40;99.90;;;;;;5010156;28;20056;-63
2022/11/23 02:25:42;;;;;;;12.02;3.28;;;4.30;99.90;;;;;;5009156;28;20049;-63
2022/11/23 02:28:08;;;;;;;9.65;3.38;;;4.30;99.90;;;;;;5012937;28;20041;-64
2022/11/23 02:30:34;;;;;;;8.90;3.50;;;4.30;99.90;;;;;;5011736;28;20065;-63
2022/11/23 02:33:02;;;;;;;7.57;3.10;;;4.30;99.90;;;;;;4994752;28;20042;-63
2022/11/23 02:35:28;;;;;;;8.40;3.20;;;4.30;99.90;;;;;;4994933;28;20046;-64
2022/11/23 02:37:53;;;;;;;7.50;3.00;;;4.30;99.90;;;;;;5012432;28;20046;-63
2022/11/23 02:40:32;;;;;;;9.18;4.05;;;4.30;99.90;;;;;;4995447;28;20384;-63
2022/11/23 02:42:58;;;;;;;10.15;2.90;;;4.30;99.90;;;;;;5037816;28;20156;-63
2022/11/23 02:45:30;;;;;;;9.90;3.05;;;4.30;99.90;;;;;;5011274;28;20045;-63
2022/11/23 02:47:56;;;;;;;10.07;3.28;;;4.40;99.90;;;;;;5011990;28;20122;-65
2022/11/23 02:50:21;;;;;;;9.70;3.35;;;4.30;99.90;;;;;;5008610;28;20052;-63
2022/11/23 02:52:47;;;;;;;9.15;3.17;;;4.40;99.90;;;;;;5043675;28;20041;-63
2022/11/23 02:55:13;;;;;;;9.85;3.22;;;4.30;99.90;;;;;;5011657;28;20076;-63
2022/11/23 02:57:39;;;;;;;10.60;3.60;;;4.30;99.90;;;;;;4992255;28;20050;-63
2022/11/23 03:00:05;;;;;;;11.70;3.70;;;4.30;99.90;;;;;;4996154;28;20042;-63
2022/11/23 03:02:31;;;;;;;14.02;3.88;;;4.30;99.90;;;;;;5011694;28;20367;-63
2022/11/23 03:04:56;;;;;;;11.10;3.35;;;4.30;99.90;;;;;;4995612;28;20045;-63
2022/11/23 03:07:22;;;;;;;12.27;3.20;;;4.30;99.90;;;;;;4974482;28;20046;-63
2022/11/23 03:09:48;;;;;;;10.80;3.22;;;4.40;99.90;;;;;;4995650;28;20081;-63
2022/11/23 03:12:15;;;;;;;10.00;3.38;;;4.40;99.90;;;;;;4992136;28;20099;-63
2022/11/23 03:14:41;;;;;;;8.80;3.35;;;4.40;99.90;;;;;;5009618;28;20045;-64
2022/11/23 03:17:06;;;;;;;11.07;3.53;;;4.50;99.90;;;;;;5013013;28;20150;-64
2022/11/23 03:19:32;;;;;;;4.78;2.58;;;4.50;99.90;;;;;;5011100;28;20053;-63
2022/11/23 03:21:58;;;;;;;11.85;2.90;;;4.50;99.90;;;;;;5005721;28;20072;-64
2022/11/23 03:24:23;;;;;;;10.93;3.53;;;4.60;99.90;;;;;;5010616;28;20471;-64
2022/11/23 03:26:49;;;;;;;8.63;3.10;;;4.60;99.90;;;;;;5010200;28;20053;-64
2022/11/23 03:29:15;;;;;;;9.88;3.45;;;4.60;99.90;;;;;;4992140;28;20061;-65
2022/11/23 03:31:41;;;;;;;12.15;3.00;;;4.60;99.90;;;;;;4992547;28;20365;-63
2022/11/23 03:34:07;;;;;;;9.82;3.30;;;4.60;99.90;;;;;;5011017;28;20045;-64
2022/11/23 03:36:35;;;;;;;7.45;3.20;;;4.70;99.90;;;;;;4992723;28;20802;-63
2022/11/23 03:39:00;;;;;;;12.43;3.40;;;4.70;99.90;;;;;;5008326;28;20057;-63
2022/11/23 03:41:26;;;;;;;10.55;3.03;;;4.70;99.90;;;;;;5009965;28;20038;-63
2022/11/23 03:43:52;;;;;;;7.32;2.85;;;4.80;99.90;;;;;;5009077;28;20486;-63
2022/11/23 03:46:17;;;;;;;8.65;2.85;;;4.80;99.90;;;;;;5011657;28;20089;-64
2022/11/23 03:48:43;;;;;;;9.10;2.95;;;4.80;99.90;;;;;;4993910;28;20045;-64
2022/11/23 03:51:09;;;;;;;7.18;2.72;;;4.90;99.90;;;;;;4994112;28;20046;-63
2022/11/23 03:53:34;;;;;;;9.45;2.70;;;4.90;99.90;;;;;;5006193;28;20042;-63
2022/11/23 03:56:00;;;;;;;8.43;2.97;;;4.90;99.90;;;;;;5011410;28;20046;-63
2022/11/23 03:58:26;;;;;;;11.55;2.80;;;4.90;99.90;;;;;;5010708;28;20046;-63
2022/11/23 04:00:52;;;;;;;8.55;2.83;;;4.90;99.90;;;;;;5009362;28;20063;-64
2022/11/23 04:03:17;;;;;;;8.65;2.67;;;5.00;99.90;;;;;;4993527;28;20487;-63
2022/11/23 04:05:43;;;;;;;6.68;2.85;;;5.00;99.90;;;;;;4992784;28;20049;-63
2022/11/23 04:08:09;;;;;;;8.77;3.35;;;5.10;99.90;;;;;;5007599;28;20498;-64
2022/11/23 04:10:34;;;;;;;9.13;2.75;;;5.10;99.90;;;;;;5010043;28;20583;-64
2022/11/23 04:13:01;;;;;;;9.45;3.20;;;5.10;99.90;;;;;;5008093;28;20444;-64
2022/11/23 04:15:27;;;;;;;11.02;3.15;;;5.10;99.90;;;;;;5009629;28;20376;-64
2022/11/23 04:17:54;;;;;;;7.45;2.97;;;5.10;99.90;;;;;;5010043;28;20054;-63
2022/11/23 04:20:19;;;;;;;8.98;3.00;;;5.10;99.90;;;;;;5010380;28;20045;-63
2022/11/23 04:22:45;;;;;;;12.63;3.47;;;5.20;99.90;;;;;;5009702;28;20107;-64
2022/11/23 04:25:11;;;;;;;10.07;2.80;;;5.20;99.90;;;;;;5006110;28;20135;-64
2022/11/23 04:27:36;;;;;;;9.00;2.83;;;5.20;99.90;;;;;;5026567;28;20049;-63
2022/11/23 04:30:03;;;;;;;11.13;3.10;;;5.20;99.90;;;;;;4992796;28;20055;-64
2022/11/23 04:32:29;;;;;;;9.35;3.47;;;5.20;99.90;;;;;;5009608;28;20042;-65
2022/11/23 04:34:54;;;;;;;7.53;2.50;;;5.20;99.90;;;;;;5009698;28;20041;-63
2022/11/23 04:37:20;;;;;;;10.65;3.50;;;5.20;99.90;;;;;;5010125;28;20050;-64
2022/11/23 04:39:46;;;;;;;7.55;2.90;;;5.20;99.90;;;;;;5008036;28;20523;-64
2022/11/23 04:42:12;;;;;;;7.57;2.53;;;5.20;99.90;;;;;;5009701;28;20050;-65
2022/11/23 04:44:37;;;;;;;8.40;2.70;;;5.30;99.90;;;;;;5017484;28;20116;-64
2022/11/23 04:47:03;;;;;;;7.30;2.50;;;5.30;99.90;;;;;;4992888;28;20077;-64
2022/11/23 04:49:29;;;;;;;7.45;2.55;;;5.30;99.90;;;;;;4992570;28;20097;-64
2022/11/23 04:51:55;;;;;;;7.78;3.15;;;5.30;99.90;;;;;;5013404;28;20388;-66
2022/11/23 04:54:20;;;;;;;6.72;2.63;;;5.40;99.90;;;;;;5008999;28;20042;-64
2022/11/23 04:56:46;;;;;;;9.98;3.17;;;5.40;99.90;;;;;;5006774;28;20199;-65
2022/11/23 04:59:12;;;;;;;10.93;3.00;;;5.40;99.90;;;;;;5025291;28;20638;-64
2022/11/23 05:01:37;;;;;;;13.15;4.18;;;5.40;99.90;;;;;;5041209;28;20037;-64
2022/11/23 05:04:03;;;;;;;8.85;3.08;;;5.40;99.90;;;;;;5005534;28;20046;-67
2022/11/23 05:06:29;;;;;;;10.82;2.92;;;5.50;99.90;;;;;;4989447;28;20037;-64
2022/11/23 05:08:55;;;;;;;11.07;3.03;;;5.50;99.90;;;;;;5009704;28;20852;-64
2022/11/23 05:11:20;;;;;;;9.52;3.20;;;5.50;99.90;;;;;;4995848;28;20127;-64
2022/11/23 05:13:46;;;;;;;9.07;3.03;;;5.50;99.90;;;;;;5021433;28;20104;-64
2022/11/23 05:16:12;;;;;;;11.00;3.72;;;5.50;99.90;;;;;;5019302;28;20052;-64
2022/11/23 05:18:38;;;;;;;7.95;2.80;;;5.60;99.90;;;;;;4992966;28;20125;-64
2022/11/23 05:21:04;;;;;;;15.25;3.45;;;5.60;99.90;;;;;;4991259;28;20046;-64
2022/11/23 05:23:29;;;;;;;9.15;2.72;;;5.60;99.90;;;;;;5008690;28;20052;-64
2022/11/23 05:25:55;;;;;;;9.23;2.85;;;5.60;99.90;;;;;;5011800;28;20065;-64
2022/11/23 05:28:21;;;;;;;10.88;2.92;;;5.60;99.90;;;;;;4991630;28;20042;-63
2022/11/23 05:30:47;;;;;;;10.43;3.58;;;5.60;99.90;;;;;;5009007;28;20049;-64
2022/11/23 05:33:13;;;;;;;9.45;3.05;;;5.60;99.90;;;;;;5008030;28;20045;-64
2022/11/23 05:35:38;;;;;;;12.57;3.72;;;5.60;99.90;;;;;;5023909;28;20045;-64
2022/11/23 05:38:05;;;;;;;9.50;3.00;;;5.60;99.90;;;;;;5008238;28;20042;-64
2022/11/23 05:40:31;;;;;;;7.47;2.90;;;5.60;99.90;;;;;;4990401;28;20046;-64
2022/11/23 05:42:57;;;;;;;11.07;3.40;;;5.60;99.90;;;;;;4992428;28;20057;-64
2022/11/23 05:45:26;;;;;;;11.38;4.00;;;5.60;99.90;;;;;;5002675;28;20089;-64
2022/11/23 05:47:57;;;;;;;8.55;3.40;;;5.60;99.90;;;;;;5008095;28;20440;-64
2022/11/23 05:50:24;;;;;;;9.23;3.10;;;5.60;99.90;;;;;;4991750;28;20558;-63
2022/11/23 05:52:50;;;;;;;9.77;3.50;;;5.60;99.90;;;;;;5008610;28;20057;-64
2022/11/23 05:55:16;;;;;;;8.55;3.38;;;5.60;99.90;;;;;;5009106;28;20110;-64
2022/11/23 05:57:42;;;;;;;8.27;3.10;;;5.60;99.90;;;;;;5006590;28;20549;-64
2022/11/23 06:00:11;;;;;;;10.40;3.67;;;5.60;99.90;;;;;;5006817;28;20100;-64
2022/11/23 06:02:37;;;;;;;12.75;3.47;;;5.50;99.90;;;;;;5036201;28;20104;-64
2022/11/23 06:05:03;;;;;;;11.35;4.00;;;5.50;99.90;;;;;;5008771;28;20076;-63
2022/11/23 06:07:31;;;;;;;9.85;3.60;;;5.50;99.90;;;;;;4990922;28;20090;-64
2022/11/23 06:09:57;;;;;;;11.63;3.63;;;5.50;99.90;;;;;;5007558;28;20054;-64
2022/11/23 06:12:23;;;;;;;8.45;3.47;;;5.50;99.90;;;;;;4992009;28;20054;-64
2022/11/23 06:14:48;;;;;;;7.40;3.17;;;5.50;99.90;;;;;;4991681;28;20046;-64
2022/11/23 06:17:14;;;;;;;8.77;3.17;;;5.50;99.90;;;;;;5009030;28;20084;-64
2022/11/23 06:19:40;;;;;;;9.10;3.40;;;5.50;99.90;;;;;;5007519;28;20129;-66
2022/11/23 06:22:05;;;;;;;10.35;3.25;;;5.60;99.90;;;;;;5008265;28;20088;-63
2022/11/23 06:24:31;;;;;;;9.75;3.97;;;5.50;99.90;;;;;;4985436;28;20079;-63
2022/11/23 06:26:57;;;;;;;12.93;4.00;;;5.60;99.90;;;;;;5021087;28;20064;-64
2022/11/23 06:29:23;;;;;;;11.48;3.85;;;5.50;99.90;;;;;;5005480;28;20064;-65
2022/11/23 06:31:49;;;;;;;11.02;4.22;;;5.60;99.90;;;;;;5009026;28;20419;-64
2022/11/23 06:34:14;;;;;;;12.63;4.00;;;5.60;99.90;;;;;;4990933;28;20983;-64
2022/11/23 06:36:42;;;;;;;12.60;4.05;;;5.60;99.90;;;;;;5011244;28;20417;-64
2022/11/23 06:39:08;;;;;;;7.95;3.30;;;5.60;99.90;;;;;;5007981;28;20459;-64
2022/11/23 06:41:35;;;;;;;9.52;3.60;;;5.60;99.90;;;;;;5020285;28;20041;-63
2022/11/23 06:44:01;;;;;;;7.47;3.40;;;5.60;99.90;;;;;;5008581;28;20042;-66
2022/11/23 06:46:27;;;;;;;11.77;3.67;;;5.50;99.90;;;;;;4989344;28;20044;-63
2022/11/23 06:48:52;;;;;;;10.93;4.13;;;5.50;99.90;;;;;;5006449;28;20061;-63
2022/11/23 06:51:18;;;;;;;8.10;3.28;;;5.50;99.90;;;;;;4972132;28;20052;-64
2022/11/23 06:53:44;;;;;;;15.77;4.13;;;5.50;99.90;;;;;;5006583;28;20046;-63
2022/11/23 06:56:10;;;;;;;8.57;3.58;;;5.50;99.90;;;;;;5007549;28;21142;-63
2022/11/23 06:58:35;;;;;;;10.85;4.32;;;5.60;99.90;;;;;;4990803;28;20618;-64
2022/11/23 07:01:03;;;;;;;10.60;3.90;;;5.60;99.90;;;;;;5001309;28;20527;-64
2022/11/23 07:03:29;;;;;;;11.57;4.30;;;5.50;99.90;;;;;;4991619;28;20049;-63
2022/11/23 07:05:55;;;;;;;13.40;4.85;;;5.50;99.90;;;;;;4989410;28;20541;-63
2022/11/23 07:08:21;;;;;;;9.52;3.55;;;5.50;99.90;;;;;;5035562;28;20085;-64
2022/11/23 07:10:47;;;;;;;13.55;4.03;;;5.50;99.90;;;;;;5024505;28;20100;-64
2022/11/23 07:13:13;;;;;;;10.45;4.63;;;5.50;99.90;;;;;;5026409;28;20103;-64
2022/11/23 07:15:39;;;;;;;12.13;4.00;;;5.50;99.90;;;;;;5012818;28;20042;-63
2022/11/23 07:18:05;;;;;;;8.82;3.92;;;5.50;99.90;;;;;;5009081;28;20038;-64
2022/11/23 07:20:30;;;;;;;9.02;3.63;;;5.50;99.90;;;;;;5010210;28;20510;-64
2022/11/23 07:23:06;;;;;;;11.95;4.00;;;5.60;99.90;;;;;;4991319;28;20073;-63
2022/11/23 07:25:53;;;;;;;11.02;4.18;;;5.60;99.90;;;;;;5009931;28;20073;-63
2022/11/23 07:28:48;;;;;;;8.60;4.22;;;5.60;99.90;;;;;;4996397;28;20622;-63
2022/11/23 07:31:14;;;;;;;11.52;3.78;;;5.60;99.90;;;;;;5026985;28;20064;-64
2022/11/23 07:33:44;;;;;;;11.82;4.18;;;5.70;99.90;;;;;;5011107;28;20361;-63
2022/11/23 07:36:10;;;;;;;10.02;3.67;;;5.60;99.90;;;;;;5010927;28;20416;-63
2022/11/23 07:38:36;;;;;;;11.57;3.95;;;5.60;99.90;;;;;;5009684;28;20053;-63
2022/11/23 07:41:02;;;;;;;6.07;3.20;;;5.70;99.90;;;;;;5010942;28;20037;-64
2022/11/23 07:43:28;;;;;;;8.52;3.53;;;5.70;99.90;;;;;;5008400;28;20232;-65
2022/11/23 07:45:57;;;;;;;10.15;4.20;;;5.70;99.90;;;;;;5041083;28;20141;-64
2022/11/23 07:48:23;;;;;;;12.90;3.72;;;5.70;99.90;;;;;;5043672;28;20057;-64
2022/11/23 07:50:51;;;;;;;12.88;4.20;;;5.80;99.90;;;;;;5009996;28;20049;-63
2022/11/23 07:53:17;;;;;;;13.05;3.72;;;5.80;99.90;;;;;;5027069;28;20042;-65
2022/11/23 07:55:42;;;;;;;10.02;3.60;;;5.90;99.90;;;;;;5009277;28;20046;-65
2022/11/23 07:58:08;;;;;;;12.65;3.80;;;5.90;99.90;;;;;;5040490;28;20045;-66
2022/11/23 08:00:34;;;;;;;10.98;4.32;;;6.00;99.90;;;;;;5010515;28;20358;-66
2022/11/23 08:03:00;;;;;;;12.55;4.25;;;6.00;99.90;;;;;;5004755;28;20057;-66
2022/11/23 08:05:25;;;;;;;9.60;4.05;;;6.00;99.90;;;;;;4994416;28;20057;-67
2022/11/23 08:07:56;;;;;;;13.75;3.97;;;6.00;99.90;;;;;;5005059;28;20436;-66
2022/11/23 08:10:21;;;;;;;10.18;3.47;;;6.10;99.90;;;;;;5011971;28;20539;-67
2022/11/23 08:12:47;;;;;;;13.75;3.60;;;6.10;99.90;;;;;;5009226;28;20061;-66
2022/11/23 08:15:13;;;;;;;10.68;3.17;;;6.10;99.90;;;;;;4992557;28;20097;-66
2022/11/23 08:17:39;;;;;;;10.02;3.45;;;6.10;99.90;;;;;;4994046;28;20041;-66
2022/11/23 08:20:05;;;;;;;11.18;3.03;;;6.20;99.90;;;;;;5001772;28;20046;-66
2022/11/23 08:22:31;;;;;;;8.90;3.20;;;6.20;99.90;;;;;;5010842;28;20793;-66
2022/11/23 08:24:56;;;;;;;11.32;3.90;;;6.20;99.90;;;;;;5009018;28;20050;-67
2022/11/23 08:27:22;;;;;;;10.35;4.40;;;6.30;99.90;;;;;;5009619;28;20046;-66
2022/11/23 08:29:48;;;;;;;14.63;6.35;;;6.30;99.90;;;;;;5009755;28;20061;-66
2022/11/23 08:32:13;;;;;;;10.30;3.47;;;6.30;99.90;;;;;;5042995;28;20072;-67
2022/11/23 08:34:41;;;;;;;8.40;3.17;;;6.30;99.90;;;;;;5016615;28;20133;-66
2022/11/23 08:37:06;;;;;;;14.25;3.28;;;6.40;99.90;;;;;;5025238;28;20081;-67
2022/11/23 08:39:32;;;;;;;6.10;2.85;;;6.40;99.90;;;;;;5010914;28;20073;-66
2022/11/23 08:41:58;;;;;;;9.43;2.97;;;6.40;99.90;;;;;;5010716;28;20049;-65
2022/11/23 08:44:23;;;;;;;10.60;3.20;;;6.40;99.90;;;;;;5008013;28;20112;-66
2022/11/23 08:46:49;;;;;;;8.70;3.08;;;6.40;99.90;;;;;;5019438;28;20046;-66
2022/11/23 08:49:15;;;;;;;8.70;2.75;;;6.40;99.90;;;;;;5008003;28;20077;-66
2022/11/23 08:51:41;;;;;;;8.57;3.03;;;6.50;99.90;;;;;;5023985;28;20053;-65
2022/11/23 08:54:06;;;;;;;8.27;3.47;;;6.50;99.90;;;;;;5009985;28;20052;-66
2022/11/23 08:56:32;;;;;;;11.27;2.80;;;6.50;99.90;;;;;;5007973;28;20551;-66
2022/11/23 08:58:58;;;;;;;11.45;2.75;;;6.50;99.90;;;;;;5009476;28;20099;-66
2022/11/23 09:01:23;;;;;;;9.52;3.25;;;6.50;99.90;;;;;;4993242;28;20058;-66
2022/11/23 09:03:49;;;;;;;12.77;3.72;;;6.60;99.90;;;;;;5005582;28;20054;-65
2022/11/23 09:06:15;;;;;;;6.05;3.08;;;6.60;99.90;;;;;;5009327;28;20053;-66
2022/11/23 09:08:41;;;;;;;7.50;2.88;;;6.60;99.90;;;;;;5007076;28;20053;-66
2022/11/23 09:11:08;;;;;;;7.78;2.78;;;6.70;99.90;;;;;;5009076;28;20061;-66
2022/11/23 09:13:36;;;;;;;10.23;3.13;;;6.80;99.90;;;;;;5008649;28;20050;-66
2022/11/23 09:16:01;;;;;;;13.20;4.75;;;6.90;99.90;;;;;;5008769;28;20052;-65
2022/11/23 09:18:29;;;;;;;8.48;3.08;;;7.00;99.90;;;;;;5010325;28;20041;-66
2022/11/23 09:20:55;;;;;;;9.20;3.27;;;7.10;99.90;;;;;;5009394;28;20128;-65
2022/11/23 09:23:21;;;;;;;8.48;2.75;;;7.20;99.90;;;;;;5008379;28;20065;-67
2022/11/23 09:25:48;;;;;;;13.73;2.70;;;7.30;99.90;;;;;;5038828;28;20049;-66
2022/11/23 09:28:15;;;;;;;10.20;2.88;;;7.50;99.90;;;;;;5009297;28;20060;-66
2022/11/23 09:30:41;;;;;;;11.50;2.55;;;7.60;99.90;;;;;;5009138;28;20057;-66
2022/11/23 09:33:07;;;;;;;7.40;2.65;;;7.70;99.90;;;;;;5007615;28;20038;-65
2022/11/23 09:35:33;;;;;;;10.60;2.92;;;7.80;99.90;;;;;;5009133;28;20254;-65
2022/11/23 09:37:59;;;;;;;7.55;2.78;;;7.90;99.90;;;;;;5009297;28;20073;-67
2022/11/23 09:40:33;;;;;;;10.07;2.83;;;8.10;99.90;;;;;;5008476;28;20547;-66
2022/11/23 09:43:06;;;;;;;10.77;2.65;;;8.20;99.90;;;;;;5018071;28;20702;-66
2022/11/23 09:45:47;;;;;;;8.68;2.58;;;8.40;99.90;;;;;;5007379;28;20046;-65
2022/11/23 09:48:27;;;;;;;14.93;3.10;;;8.60;99.90;;;;;;5008881;28;20557;-68
2022/11/23 09:51:14;;;;;;;6.78;2.40;;;8.80;99.90;;;;;;5007756;28;20176;-64
2022/11/23 09:53:51;;;;;;;13.10;2.80;;;8.90;99.90;;;;;;4999046;28;20052;-64
2022/11/23 09:56:26;;;;;;;10.45;2.45;;;8.90;99.90;;;;;;4992585;28;20107;-64
2022/11/23 09:58:54;;;;;;;6.50;2.28;;;8.90;99.90;;;;;;4985910;28;20484;-63
2022/11/23 10:01:20;;;;;;;7.40;2.03;;;8.90;99.90;;;;;;5008766;28;20057;-63
2022/11/23 10:03:46;;;;;;;12.23;2.70;;;8.80;99.90;;;;;;5007339;28;20046;-64
2022/11/23 10:06:24;;;;;;;7.70;2.10;;;8.80;99.90;;;;;;5008515;28;20065;-64
2022/11/23 10:09:14;;;;;;;7.47;2.47;;;8.70;99.90;;;;;;5008694;28;20752;-66
2022/11/23 10:12:00;;;;;;;10.38;2.67;;;8.70;99.90;;;;;;5005550;28;20144;-68
2022/11/23 10:14:32;;;;;;;10.27;2.30;;;8.70;99.90;;;;;;5009357;28;20045;-67
2022/11/23 10:17:11;;;;;;;11.52;2.38;;;8.60;99.90;;;;;;5008464;28;20037;-63
2022/11/23 10:20:18;;;;;;;8.52;2.17;;;8.60;99.90;;;;;;5005447;28;20050;-65
2022/11/23 10:22:52;;;;;;;8.38;2.42;;;8.60;99.90;;;;;;4989284;28;20100;-65
2022/11/23 10:25:21;;;;;;;8.30;2.30;;;8.60;99.90;;;;;;4989375;28;20072;-66
2022/11/23 10:27:48;;;;;;;10.35;2.78;;;8.50;99.90;;;;;;5006104;28;20038;-66
2022/11/23 10:30:14;;;;;;;8.85;2.97;;;8.50;99.90;;;;;;5007661;28;20046;-65
2022/11/23 10:32:50;;;;;;;9.20;2.15;;;8.60;99.90;;;;;;5008593;28;20367;-65
2022/11/23 10:35:28;;;;;;;9.40;1.92;;;8.60;99.90;;;;;;5008773;28;20080;-65
2022/11/23 10:38:16;;;;;;;10.47;2.20;;;8.60;99.90;;;;;;4991092;28;20049;-65
2022/11/23 10:41:04;;;;;;;8.32;2.00;;;8.60;99.90;;;;;;5008025;28;20076;-65
2022/11/23 10:44:07;;;;;;;5.47;2.22;;;8.60;99.90;;;;;;5004808;28;20046;-66
2022/11/23 10:46:36;;;;;;;7.13;2.40;;;8.60;99.90;;;;;;5005764;28;20458;-66
2022/11/23 10:49:19;;;;;;;11.55;3.75;;;8.60;99.90;;;;;;5011211;28;20093;-65
2022/11/23 10:51:53;;;;;;;8.13;3.15;;;8.60;99.90;;;;;;5006867;28;20123;-65
2022/11/23 10:54:30;;;;;;;7.25;2.00;;;8.70;99.90;;;;;;5011752;28;20042;-65
2022/11/23 10:56:57;;;;;;;6.88;1.90;;;8.60;99.90;;;;;;5012315;28;20061;-65
2022/11/23 10:59:34;;;;;;;7.63;2.25;;;8.70;99.90;;;;;;5010512;28;20042;-65
2022/11/23 11:02:19;;;;;;;8.63;2.75;;;8.70;99.90;;;;;;5014823;28;20050;-64
2022/11/23 11:04:46;;;;;;;7.38;2.00;;;8.70;99.90;;;;;;4994706;28;20099;-66
2022/11/23 11:07:27;;;;;;;7.75;1.70;;;8.70;99.90;;;;;;5011452;28;20058;-65
2022/11/23 11:10:00;;;;;;;8.18;2.30;;;8.80;99.90;;;;;;5045404;28;20061;-64
2022/11/23 11:12:27;;;;;;;7.28;1.98;;;8.90;99.90;;;;;;5026162;28;20038;-66
2022/11/23 11:15:01;;;;;;;9.70;3.15;;;8.90;99.90;;;;;;4977495;28;20053;-65
2022/11/23 11:17:30;;;;;;;7.07;1.90;;;8.90;99.90;;;;;;4995136;28;20089;-64
2022/11/23 11:19:55;;;;;;;;;;;8.90;99.90;;;;;;5024426;28;20046;-65
2022/11/23 11:22:34;;;;;;;8.63;1.70;;;8.90;99.90;;;;;;5009108;28;19924;-64
2022/11/23 11:25:02;;;;;;;9.32;2.55;;;9.00;99.90;;;;;;5009818;28;20060;-64
2022/11/23 11:27:29;;;;;;;5.88;1.30;;;9.00;99.90;;;;;;5042885;28;20487;-65
2022/11/23 11:30:05;;;;;;;6.47;2.00;;;8.90;99.90;;;;;;5011316;28;20510;-66
2022/11/23 11:32:52;;;;;;;10.45;2.15;;;9.00;99.90;;;;;;5011490;28;20081;-65
2022/11/23 11:35:37;;;;;;;7.03;1.80;;;9.10;99.90;;;;;;5007781;28;20124;-64
2022/11/23 11:38:18;;;;;;;6.20;1.95;;;9.10;99.90;;;;;;4994698;28;20129;-65
2022/11/23 11:40:45;;;;;;;12.90;2.35;;;9.10;99.90;;;;;;5011203;28;20045;-65
2022/11/23 11:43:27;;;;;;;5.45;1.60;;;9.10;99.90;;;;;;5008954;28;20046;-65
2022/11/23 11:45:55;;;;;;;8.98;1.95;;;9.10;99.90;;;;;;5010617;28;20077;-65
2022/11/23 11:48:44;;;;;;;6.25;1.98;;;9.20;99.90;;;;;;5007372;28;20054;-66
2022/11/23 11:51:19;;;;;;;8.63;1.55;;;9.20;99.90;;;;;;5010446;28;20129;-65
2022/11/23 11:54:08;;;;;;;5.97;2.40;;;9.40;99.90;;;;;;5011359;28;20359;-67
2022/11/23 11:56:37;;;;;;;5.32;1.70;;;9.50;99.90;;;;;;5011240;28;20464;-65
2022/11/23 11:59:25;;;;;;;12.20;1.60;;;9.40;99.90;;;;;;5026060;28;20042;-66
2022/11/23 12:02:23;;;;;;;5.57;1.52;;;9.50;99.90;;;;;;5035099;28;20057;-67
2022/11/23 12:05:24;;;;;;;4.65;1.38;;;9.50;99.90;;;;;;5010041;28;20045;-65
2022/11/23 12:08:02;;;;;;;7.78;1.67;;;9.50;99.90;;;;;;4994454;28;20042;-64
2022/11/23 12:10:40;;;;;;;4.85;1.40;;;9.60;99.90;;;;;;5012986;28;20050;-63
2022/11/23 12:13:17;;;;;;;4.88;1.73;;;9.60;99.90;;;;;;4982637;28;20065;-65
2022/11/23 12:16:05;;;;;;;5.72;1.73;;;9.70;99.90;;;;;;4993520;28;20424;-66
2022/11/23 12:18:43;;;;;;;6.10;1.75;;;9.70;99.90;;;;;;5010301;28;20121;-65
2022/11/23 12:21:30;;;;;;;7.13;1.70;;;9.70;99.90;;;;;;5007087;28;20050;-65
2022/11/23 12:24:19;;;;;;;5.85;1.40;;;9.80;99.90;;;;;;5038859;28;20057;-67
2022/11/23 12:26:49;;;;;;;4.35;1.55;;;9.80;99.90;;;;;;5011158;28;20072;-65
2022/11/23 12:29:27;;;;;;;4.75;1.23;;;9.80;99.90;;;;;;5043666;28;20042;-65
2022/11/23 12:32:02;;;;;;;8.15;1.90;;;9.90;99.90;;;;;;5010451;28;20582;-65
2022/11/23 12:34:33;;;;;;;6.88;1.63;;;9.90;99.90;;;;;;4992044;28;20049;-65
2022/11/23 12:37:15;;;;;;;7.20;1.90;;;9.90;99.90;;;;;;5004517;28;20046;-66
2022/11/23 12:40:10;;;;;;;8.10;2.30;;;10.00;99.90;;;;;;4999145;28;20049;-64
2022/11/23 12:42:47;;;;;;;7.25;2.40;;;10.00;99.90;;;;;;5001496;28;20049;-65
2022/11/23 12:45:15;;;;;;;8.05;2.00;;;10.00;99.90;;;;;;5011110;28;20160;-65
2022/11/23 12:47:45;;;;;;;;;;;10.00;99.90;;;;;;5026924;28;20751;-66
2022/11/23 12:50:17;;;;;;;8.05;2.45;;;10.00;99.90;;;;;;4991501;28;19918;-65
2022/11/23 12:53:26;;;;;;;6.97;2.35;;;10.10;99.90;;;;;;5007941;28;20095;-65
2022/11/23 12:56:02;;;;;;;7.30;2.05;;;10.20;99.90;;;;;;5003838;28;20438;-66
2022/11/23 12:58:29;;;;;;;8.75;2.30;;;10.20;99.90;;;;;;5007544;28;20073;-66
2022/11/23 13:01:13;;;;;;;6.68;2.00;;;10.30;99.90;;;;;;5009411;28;20049;-66
2022/11/23 13:04:13;;;;;;;7.75;1.75;;;10.30;99.90;;;;;;5006919;28;20050;-64